sensor_id;sensor_type;location;lat;lon;timestamp;pressure;altitude;pressure_sealevel;temperature;humidity
63343;BME280;49465;57.664;39.686;2023-02-28T00:00:41;100187.34;;;-4.08;52.44
63343;BME280;49465;57.664;39.686;2023-02-28T00:03:09;100176.16;;;-3.91;52.11
63343;BME280;49465;57.664;39.686;2023-02-28T00:05:44;100181.28;;;-3.94;52.75
63343;BME280;49465;57.664;39.686;2023-02-28T00:08:13;100175.38;;;-4.06;53.01
63343;BME280;49465;57.664;39.686;2023-02-28T00:10:43;100177.84;;;-3.89;52.25
63343;BME280;49465;57.664;39.686;2023-02-28T00:13:14;100175.16;;;-3.77;52.07
63343;BME280;49465;57.664;39.686;2023-02-28T00:15:45;100171.53;;;-3.46;51.89
63343;BME280;49465;57.664;39.686;2023-02-28T00:18:24;100153.94;;;-3.91;52.59
63343;BME280;49465;57.664;39.686;2023-02-28T00:21:22;100152.44;;;-4.23;53.91
63343;BME280;49465;57.664;39.686;2023-02-28T00:23:57;100142.78;;;-3.85;52.75
63343;BME280;49465;57.664;39.686;2023-02-28T00:26:27;100137.63;;;-3.79;52.71
63343;BME280;49465;57.664;39.686;2023-02-28T00:28:56;100125.56;;;-3.69;52.67
63343;BME280;49465;57.664;39.686;2023-02-28T00:31:29;100122.13;;;-3.65;52.29
63343;BME280;49465;57.664;39.686;2023-02-28T00:34:01;100116.22;;;-3.72;52.53
63343;BME280;49465;57.664;39.686;2023-02-28T00:36:42;100113.00;;;-3.94;53.06
63343;BME280;49465;57.664;39.686;2023-02-28T00:39:12;100105.25;;;-3.89;53.10
63343;BME280;49465;57.664;39.686;2023-02-28T00:41:50;100099.06;;;-3.64;52.41
63343;BME280;49465;57.664;39.686;2023-02-28T00:44:26;100094.69;;;-3.55;52.43
63343;BME280;49465;57.664;39.686;2023-02-28T00:47:05;100089.00;;;-3.85;53.13
63343;BME280;49465;57.664;39.686;2023-02-28T00:49:37;100071.91;;;-3.85;53.22
63343;BME280;49465;57.664;39.686;2023-02-28T00:52:14;100070.03;;;-3.64;52.86
63343;BME280;49465;57.664;39.686;2023-02-28T00:54:43;100060.06;;;-3.97;53.55
63343;BME280;49465;57.664;39.686;2023-02-28T00:57:21;100049.59;;;-3.73;52.94
63343;BME280;49465;57.664;39.686;2023-02-28T00:59:55;100043.25;;;-3.37;52.26
63343;BME280;49465;57.664;39.686;2023-02-28T01:02:34;100039.41;;;-3.80;52.83
63343;BME280;49465;57.664;39.686;2023-02-28T01:05:04;100033.28;;;-3.65;52.57
63343;BME280;49465;57.664;39.686;2023-02-28T01:07:31;100035.63;;;-3.45;52.42
63343;BME280;49465;57.664;39.686;2023-02-28T01:10:03;100024.56;;;-3.48;52.27
63343;BME280;49465;57.664;39.686;2023-02-28T01:12:46;100012.75;;;-3.62;52.83
63343;BME280;49465;57.664;39.686;2023-02-28T01:15:22;100006.03;;;-3.72;53.13
63343;BME280;49465;57.664;39.686;2023-02-28T01:17:51;99993.06;;;-3.60;52.50
63343;BME280;49465;57.664;39.686;2023-02-28T01:20:26;99980.66;;;-3.24;51.54
63343;BME280;49465;57.664;39.686;2023-02-28T01:23:01;99953.78;;;-3.59;52.30
63343;BME280;49465;57.664;39.686;2023-02-28T01:25:31;99948.94;;;-3.85;53.40
63343;BME280;49465;57.664;39.686;2023-02-28T01:28:16;99936.09;;;-3.80;53.04
63343;BME280;49465;57.664;39.686;2023-02-28T01:30:55;99935.19;;;-3.76;52.67
63343;BME280;49465;57.664;39.686;2023-02-28T01:33:22;99935.94;;;-3.68;52.30
63343;BME280;49465;57.664;39.686;2023-02-28T01:35:59;99931.81;;;-3.83;52.33
63343;BME280;49465;57.664;39.686;2023-02-28T01:38:35;99923.41;;;-3.24;51.10
63343;BME280;49465;57.664;39.686;2023-02-28T01:41:05;99911.06;;;-3.61;52.05
63343;BME280;49465;57.664;39.686;2023-02-28T01:46:20;99886.09;;;-3.45;51.52
63343;BME280;49465;57.664;39.686;2023-02-28T01:49:16;99883.22;;;-3.24;51.10
63343;BME280;49465;57.664;39.686;2023-02-28T01:51:51;99889.84;;;-3.71;52.36
63343;BME280;49465;57.664;39.686;2023-02-28T01:54:33;99881.66;;;-3.99;52.37
63343;BME280;49465;57.664;39.686;2023-02-28T01:57:15;99884.81;;;-3.79;52.24
63343;BME280;49465;57.664;39.686;2023-02-28T02:00:16;99882.25;;;-3.79;51.88
63343;BME280;49465;57.664;39.686;2023-02-28T02:02:49;99871.91;;;-3.72;52.09
63343;BME280;49465;57.664;39.686;2023-02-28T02:05:20;99860.69;;;-3.61;51.23
63343;BME280;49465;57.664;39.686;2023-02-28T02:07:55;99854.34;;;-3.35;51.41
63343;BME280;49465;57.664;39.686;2023-02-28T02:10:34;99833.94;;;-3.43;51.57
63343;BME280;49465;57.664;39.686;2023-02-28T02:16:25;99828.09;;;-3.52;52.12
63343;BME280;49465;57.664;39.686;2023-02-28T02:41:17;99770.44;;;-3.84;51.78
63343;BME280;49465;57.664;39.686;2023-02-28T02:46:33;99779.34;;;-3.49;51.61
63343;BME280;49465;57.664;39.686;2023-02-28T02:49:10;99756.44;;;-3.59;51.93
63343;BME280;49465;57.664;39.686;2023-02-28T02:51:41;99759.72;;;-3.50;51.50
63343;BME280;49465;57.664;39.686;2023-02-28T02:54:13;99752.56;;;-3.31;51.87
63343;BME280;49465;57.664;39.686;2023-02-28T02:56:46;99755.59;;;-3.08;50.45
63343;BME280;49465;57.664;39.686;2023-02-28T02:59:19;99742.16;;;-3.21;50.59
63343;BME280;49465;57.664;39.686;2023-02-28T03:01:56;99733.06;;;-3.40;51.08
63343;BME280;49465;57.664;39.686;2023-02-28T03:04:35;99734.63;;;-3.31;51.09
63343;BME280;49465;57.664;39.686;2023-02-28T03:07:16;99729.09;;;-3.08;50.92
63343;BME280;49465;57.664;39.686;2023-02-28T03:09:55;99724.34;;;-3.31;51.16
63343;BME280;49465;57.664;39.686;2023-02-28T03:12:41;99712.31;;;-3.25;51.64
63343;BME280;49465;57.664;39.686;2023-02-28T03:15:19;99703.91;;;-3.34;51.35
63343;BME280;49465;57.664;39.686;2023-02-28T03:23:59;99689.63;;;-3.49;52.61
63343;BME280;49465;57.664;39.686;2023-02-28T03:26:30;99662.44;;;-3.58;52.68
63343;BME280;49465;57.664;39.686;2023-02-28T03:29:06;99663.72;;;-3.34;51.97
63343;BME280;49465;57.664;39.686;2023-02-28T03:32:13;99634.44;;;-3.21;51.78
63343;BME280;49465;57.664;39.686;2023-02-28T03:34:57;99613.69;;;-3.55;52.83
63343;BME280;49465;57.664;39.686;2023-02-28T03:37:38;99631.72;;;-3.61;53.18
63343;BME280;49465;57.664;39.686;2023-02-28T03:40:25;99608.25;;;-3.38;52.64
63343;BME280;49465;57.664;39.686;2023-02-28T03:42:59;99615.63;;;-3.68;53.19
63343;BME280;49465;57.664;39.686;2023-02-28T03:45:33;99617.66;;;-3.37;52.81
63343;BME280;49465;57.664;39.686;2023-02-28T03:48:32;99594.72;;;-3.45;53.13
63343;BME280;49465;57.664;39.686;2023-02-28T03:51:03;99600.41;;;-3.77;54.23
63343;BME280;49465;57.664;39.686;2023-02-28T03:53:45;99623.75;;;-3.44;53.37
63343;BME280;49465;57.664;39.686;2023-02-28T03:56:25;99641.84;;;-3.53;53.38
63343;BME280;49465;57.664;39.686;2023-02-28T03:59:22;99646.06;;;-3.51;53.44
63343;BME280;49465;57.664;39.686;2023-02-28T04:01:58;99650.66;;;-3.20;52.80
63343;BME280;49465;57.664;39.686;2023-02-28T04:04:30;99643.72;;;-3.13;52.70
63343;BME280;49465;57.664;39.686;2023-02-28T04:07:08;99649.97;;;-3.30;53.61
63343;BME280;49465;57.664;39.686;2023-02-28T04:09:45;99636.03;;;-3.13;52.75
63343;BME280;49465;57.664;39.686;2023-02-28T04:12:14;99627.13;;;-3.42;53.54
63343;BME280;49465;57.664;39.686;2023-02-28T04:14:46;99629.59;;;-3.36;53.40
63343;BME280;49465;57.664;39.686;2023-02-28T04:17:17;99625.28;;;-3.35;54.00
63343;BME280;49465;57.664;39.686;2023-02-28T04:19:47;99617.47;;;-3.28;53.37
63343;BME280;49465;57.664;39.686;2023-02-28T04:22:20;99606.09;;;-3.60;53.93
63343;BME280;49465;57.664;39.686;2023-02-28T04:24:49;99596.72;;;-3.61;54.31
63343;BME280;49465;57.664;39.686;2023-02-28T04:27:18;99602.56;;;-3.52;54.33
63343;BME280;49465;57.664;39.686;2023-02-28T04:29:48;99600.13;;;-3.62;54.55
63343;BME280;49465;57.664;39.686;2023-02-28T04:32:20;99599.47;;;-3.23;54.11
63343;BME280;49465;57.664;39.686;2023-02-28T04:34:55;99585.44;;;-3.50;54.16
63343;BME280;49465;57.664;39.686;2023-02-28T04:37:24;99580.63;;;-3.24;54.11
63343;BME280;49465;57.664;39.686;2023-02-28T04:39:57;99582.19;;;-3.62;54.99
63343;BME280;49465;57.664;39.686;2023-02-28T04:42:26;99562.84;;;-3.31;54.00
63343;BME280;49465;57.664;39.686;2023-02-28T04:44:55;99559.56;;;-3.38;54.51
63343;BME280;49465;57.664;39.686;2023-02-28T04:47:21;99547.09;;;-3.56;55.10
63343;BME280;49465;57.664;39.686;2023-02-28T04:49:51;99544.28;;;-3.44;55.23
63343;BME280;49465;57.664;39.686;2023-02-28T04:52:20;99554.25;;;-3.29;54.57
63343;BME280;49465;57.664;39.686;2023-02-28T04:54:47;99558.69;;;-3.37;54.34
63343;BME280;49465;57.664;39.686;2023-02-28T04:57:13;99558.59;;;-2.90;53.07
63343;BME280;49465;57.664;39.686;2023-02-28T04:59:42;99559.72;;;-3.47;55.30
63343;BME280;49465;57.664;39.686;2023-02-28T05:02:11;99564.72;;;-3.41;54.94
63343;BME280;49465;57.664;39.686;2023-02-28T05:04:45;99568.19;;;-2.99;54.16
63343;BME280;49465;57.664;39.686;2023-02-28T05:07:17;99558.44;;;-3.23;54.85
63343;BME280;49465;57.664;39.686;2023-02-28T05:09:51;99555.75;;;-3.19;54.69
63343;BME280;49465;57.664;39.686;2023-02-28T05:12:29;99541.97;;;-3.13;54.76
63343;BME280;49465;57.664;39.686;2023-02-28T05:15:04;99558.03;;;-3.05;54.74
63343;BME280;49465;57.664;39.686;2023-02-28T05:17:53;99554.66;;;-3.07;54.78
63343;BME280;49465;57.664;39.686;2023-02-28T05:20:25;99551.28;;;-3.09;55.11
63343;BME280;49465;57.664;39.686;2023-02-28T05:22:55;99533.53;;;-3.18;54.95
63343;BME280;49465;57.664;39.686;2023-02-28T05:25:42;99539.28;;;-3.07;54.81
63343;BME280;49465;57.664;39.686;2023-02-28T05:28:12;99531.53;;;-3.04;54.38
63343;BME280;49465;57.664;39.686;2023-02-28T05:30:38;99512.78;;;-3.07;55.16
63343;BME280;49465;57.664;39.686;2023-02-28T05:33:17;99516.09;;;-3.02;54.34
63343;BME280;49465;57.664;39.686;2023-02-28T05:35:51;99515.44;;;-3.12;54.86
63343;BME280;49465;57.664;39.686;2023-02-28T05:38:29;99495.69;;;-3.08;54.88
63343;BME280;49465;57.664;39.686;2023-02-28T05:41:11;99490.06;;;-3.24;55.32
63343;BME280;49465;57.664;39.686;2023-02-28T05:43:43;99495.38;;;-3.33;56.10
63343;BME280;49465;57.664;39.686;2023-02-28T05:46:13;99476.91;;;-3.09;55.34
63343;BME280;49465;57.664;39.686;2023-02-28T05:48:47;99494.59;;;-2.96;55.48
63343;BME280;49465;57.664;39.686;2023-02-28T05:51:19;99489.34;;;-3.31;56.13
63343;BME280;49465;57.664;39.686;2023-02-28T05:53:59;99488.41;;;-3.27;55.84
63343;BME280;49465;57.664;39.686;2023-02-28T05:56:31;99478.72;;;-3.14;55.60
63343;BME280;49465;57.664;39.686;2023-02-28T05:59:06;99468.72;;;-3.26;55.83
63343;BME280;49465;57.664;39.686;2023-02-28T06:01:43;99468.31;;;-3.08;55.54
63343;BME280;49465;57.664;39.686;2023-02-28T06:04:22;99465.72;;;-3.05;55.61
63343;BME280;49465;57.664;39.686;2023-02-28T06:06:56;99458.44;;;-2.84;55.34
63343;BME280;49465;57.664;39.686;2023-02-28T06:09:34;99473.38;;;-2.66;54.73
63343;BME280;49465;57.664;39.686;2023-02-28T06:12:07;99452.28;;;-3.18;56.55
63343;BME280;49465;57.664;39.686;2023-02-28T06:14:47;99448.66;;;-3.06;55.92
63343;BME280;49465;57.664;39.686;2023-02-28T06:17:22;99447.66;;;-2.63;55.04
63343;BME280;49465;57.664;39.686;2023-02-28T06:19:59;99431.66;;;-3.11;56.30
63343;BME280;49465;57.664;39.686;2023-02-28T06:22:44;99439.94;;;-3.00;56.24
63343;BME280;49465;57.664;39.686;2023-02-28T06:25:28;99435.38;;;-2.51;55.50
63343;BME280;49465;57.664;39.686;2023-02-28T06:28:00;99428.16;;;-2.70;55.83
63343;BME280;49465;57.664;39.686;2023-02-28T06:30:30;99433.81;;;-2.93;56.54
63343;BME280;49465;57.664;39.686;2023-02-28T06:33:02;99424.56;;;-3.00;56.79
63343;BME280;49465;57.664;39.686;2023-02-28T06:35:35;99423.94;;;-2.72;56.54
63343;BME280;49465;57.664;39.686;2023-02-28T06:38:21;99435.63;;;-2.61;56.17
63343;BME280;49465;57.664;39.686;2023-02-28T06:41:00;99426.25;;;-2.63;56.17
63343;BME280;49465;57.664;39.686;2023-02-28T06:43:37;99432.53;;;-2.39;56.25
63343;BME280;49465;57.664;39.686;2023-02-28T06:46:06;99414.47;;;-2.36;55.66
63343;BME280;49465;57.664;39.686;2023-02-28T06:48:43;99419.38;;;-2.27;55.60
63343;BME280;49465;57.664;39.686;2023-02-28T06:51:18;99418.06;;;-2.09;55.07
63343;BME280;49465;57.664;39.686;2023-02-28T06:53:55;99402.16;;;-2.23;56.34
63343;BME280;49465;57.664;39.686;2023-02-28T06:56:35;99410.63;;;-2.52;56.39
63343;BME280;49465;57.664;39.686;2023-02-28T07:02:04;99400.34;;;-1.88;54.85
63343;BME280;49465;57.664;39.686;2023-02-28T07:04:38;99406.53;;;-1.94;55.58
63343;BME280;49465;57.664;39.686;2023-02-28T07:07:21;99398.44;;;-1.80;55.54
63343;BME280;49465;57.664;39.686;2023-02-28T07:09:50;99385.97;;;-2.25;56.81
63343;BME280;49465;57.664;39.686;2023-02-28T07:12:37;99387.34;;;-2.13;56.53
63343;BME280;49465;57.664;39.686;2023-02-28T07:15:10;99383.88;;;-2.12;56.10
63343;BME280;49465;57.664;39.686;2023-02-28T07:17:48;99358.50;;;-1.92;55.43
63343;BME280;49465;57.664;39.686;2023-02-28T07:20:26;99359.94;;;-2.13;56.07
63343;BME280;49465;57.664;39.686;2023-02-28T07:22:56;99358.31;;;-2.15;56.38
63343;BME280;49465;57.664;39.686;2023-02-28T07:25:34;99353.88;;;-2.10;56.35
63343;BME280;49465;57.664;39.686;2023-02-28T07:28:06;99353.03;;;-2.11;56.76
63343;BME280;49465;57.664;39.686;2023-02-28T07:30:44;99341.34;;;-2.21;56.32
63343;BME280;49465;57.664;39.686;2023-02-28T07:33:23;99334.69;;;-1.99;55.93
63343;BME280;49465;57.664;39.686;2023-02-28T07:36:10;99326.91;;;-1.95;56.71
63343;BME280;49465;57.664;39.686;2023-02-28T07:38:47;99319.84;;;-2.19;56.75
63343;BME280;49465;57.664;39.686;2023-02-28T07:41:28;99326.91;;;-1.95;56.80
63343;BME280;49465;57.664;39.686;2023-02-28T07:44:05;99301.81;;;-2.15;56.86
63343;BME280;49465;57.664;39.686;2023-02-28T07:46:41;99312.72;;;-1.79;56.44
63343;BME280;49465;57.664;39.686;2023-02-28T07:49:16;99313.25;;;-1.96;56.64
63343;BME280;49465;57.664;39.686;2023-02-28T07:51:48;99305.03;;;-2.09;57.50
63343;BME280;49465;57.664;39.686;2023-02-28T07:54:22;99306.31;;;-1.94;57.46
63343;BME280;49465;57.664;39.686;2023-02-28T07:57:02;99299.19;;;-1.84;57.35
63343;BME280;49465;57.664;39.686;2023-02-28T07:59:41;99282.69;;;-2.07;57.33
63343;BME280;49465;57.664;39.686;2023-02-28T08:02:21;99289.63;;;-2.09;58.15
63343;BME280;49465;57.664;39.686;2023-02-28T08:05:13;99274.78;;;-1.71;56.98
63343;BME280;49465;57.664;39.686;2023-02-28T08:07:49;99269.06;;;-1.81;57.19
63343;BME280;49465;57.664;39.686;2023-02-28T08:10:22;99281.31;;;-1.89;58.10
63343;BME280;49465;57.664;39.686;2023-02-28T08:12:58;99271.56;;;-1.77;58.01
63343;BME280;49465;57.664;39.686;2023-02-28T08:15:32;99262.56;;;-1.63;57.28
63343;BME280;49465;57.664;39.686;2023-02-28T08:18:05;99267.22;;;-1.75;58.33
63343;BME280;49465;57.664;39.686;2023-02-28T08:20:34;99254.75;;;-1.60;57.80
63343;BME280;49465;57.664;39.686;2023-02-28T08:23:09;99265.22;;;-1.66;57.77
63343;BME280;49465;57.664;39.686;2023-02-28T08:25:44;99281.84;;;-1.77;58.32
63343;BME280;49465;57.664;39.686;2023-02-28T08:28:25;99277.88;;;-1.31;57.31
63343;BME280;49465;57.664;39.686;2023-02-28T08:31:10;99266.00;;;-1.64;58.21
63343;BME280;49465;57.664;39.686;2023-02-28T08:33:46;99262.44;;;-1.60;58.10
63343;BME280;49465;57.664;39.686;2023-02-28T08:36:24;99262.56;;;-1.36;57.63
63343;BME280;49465;57.664;39.686;2023-02-28T08:39:01;99249.31;;;-1.50;57.72
63343;BME280;49465;57.664;39.686;2023-02-28T08:41:36;99267.50;;;-1.56;58.06
63343;BME280;49465;57.664;39.686;2023-02-28T08:44:24;99272.53;;;-1.53;58.49
63343;BME280;49465;57.664;39.686;2023-02-28T08:46:54;99249.50;;;-1.30;57.41
63343;BME280;49465;57.664;39.686;2023-02-28T08:49:23;99271.56;;;-1.49;58.41
63343;BME280;49465;57.664;39.686;2023-02-28T08:52:01;99273.53;;;-1.57;59.07
63343;BME280;49465;57.664;39.686;2023-02-28T08:54:33;99260.47;;;-1.51;58.48
63343;BME280;49465;57.664;39.686;2023-02-28T08:57:14;99264.81;;;-1.53;58.41
63343;BME280;49465;57.664;39.686;2023-02-28T08:59:46;99259.75;;;-1.28;58.07
63343;BME280;49465;57.664;39.686;2023-02-28T09:02:18;99262.38;;;-1.03;57.13
63343;BME280;49465;57.664;39.686;2023-02-28T09:04:52;99257.19;;;-1.28;57.71
63343;BME280;49465;57.664;39.686;2023-02-28T09:07:29;99268.78;;;-1.43;58.42
63343;BME280;49465;57.664;39.686;2023-02-28T09:10:06;99246.72;;;-1.24;58.35
63343;BME280;49465;57.664;39.686;2023-02-28T09:12:50;99252.66;;;-1.22;58.41
63343;BME280;49465;57.664;39.686;2023-02-28T09:15:28;99266.72;;;-1.05;58.02
63343;BME280;49465;57.664;39.686;2023-02-28T09:18:02;99259.31;;;-1.14;58.35
63343;BME280;49465;57.664;39.686;2023-02-28T09:20:41;99269.44;;;-1.10;58.32
63343;BME280;49465;57.664;39.686;2023-02-28T09:23:16;99251.59;;;-1.14;57.94
63343;BME280;49465;57.664;39.686;2023-02-28T09:25:55;99238.13;;;-1.23;58.61
63343;BME280;49465;57.664;39.686;2023-02-28T09:28:36;99259.38;;;-0.91;57.84
63343;BME280;49465;57.664;39.686;2023-02-28T09:31:16;99245.56;;;-0.88;57.39
63343;BME280;49465;57.664;39.686;2023-02-28T09:33:57;99251.91;;;-0.98;57.92
63343;BME280;49465;57.664;39.686;2023-02-28T09:36:30;99245.50;;;-0.87;58.10
63343;BME280;49465;57.664;39.686;2023-02-28T09:39:11;99252.31;;;-0.84;57.99
63343;BME280;49465;57.664;39.686;2023-02-28T09:41:47;99240.03;;;-0.52;57.22
63343;BME280;49465;57.664;39.686;2023-02-28T09:47:04;99247.00;;;-0.80;58.03
63343;BME280;49465;57.664;39.686;2023-02-28T09:49:40;99250.13;;;-0.71;58.01
63343;BME280;49465;57.664;39.686;2023-02-28T09:52:15;99234.31;;;-0.61;58.25
63343;BME280;49465;57.664;39.686;2023-02-28T09:54:51;99236.41;;;-0.47;57.21
63343;BME280;49465;57.664;39.686;2023-02-28T09:57:38;99224.63;;;-0.54;58.31
63343;BME280;49465;57.664;39.686;2023-02-28T10:00:22;99223.88;;;-0.81;58.56
63343;BME280;49465;57.664;39.686;2023-02-28T10:05:43;99232.44;;;-0.57;57.90
63343;BME280;49465;57.664;39.686;2023-02-28T10:08:38;99217.47;;;-0.46;58.05
63343;BME280;49465;57.664;39.686;2023-02-28T10:11:16;99217.69;;;-0.28;57.51
63343;BME280;49465;57.664;39.686;2023-02-28T10:16:43;99205.59;;;-0.26;57.59
63343;BME280;49465;57.664;39.686;2023-02-28T10:19:56;99199.94;;;-0.36;58.07
63343;BME280;49465;57.664;39.686;2023-02-28T10:22:34;99187.56;;;-0.04;57.25
63343;BME280;49465;57.664;39.686;2023-02-28T10:25:28;99169.44;;;-0.47;58.14
63343;BME280;49465;57.664;39.686;2023-02-28T10:28:14;99175.75;;;-0.55;58.78
63343;BME280;49465;57.664;39.686;2023-02-28T10:30:50;99175.25;;;-0.42;58.37
63343;BME280;49465;57.664;39.686;2023-02-28T10:33:28;99178.59;;;-0.40;58.51
63343;BME280;49465;57.664;39.686;2023-02-28T10:36:08;99189.06;;;-0.21;57.83
63343;BME280;49465;57.664;39.686;2023-02-28T10:38:40;99180.00;;;-0.31;58.32
63343;BME280;49465;57.664;39.686;2023-02-28T10:41:12;99190.31;;;-0.31;58.18
63343;BME280;49465;57.664;39.686;2023-02-28T10:43:41;99188.28;;;0.22;57.20
63343;BME280;49465;57.664;39.686;2023-02-28T10:46:14;99174.53;;;-0.22;58.49
63343;BME280;49465;57.664;39.686;2023-02-28T10:49:04;99177.63;;;-0.13;58.24
63343;BME280;49465;57.664;39.686;2023-02-28T10:51:39;99165.94;;;-0.22;58.30
63343;BME280;49465;57.664;39.686;2023-02-28T10:54:19;99175.41;;;-0.01;57.66
63343;BME280;49465;57.664;39.686;2023-02-28T10:57:06;99181.47;;;-0.02;58.11
63343;BME280;49465;57.664;39.686;2023-02-28T10:59:37;99169.66;;;-0.07;58.22
63343;BME280;49465;57.664;39.686;2023-02-28T11:02:35;99173.84;;;0.17;57.86
63343;BME280;49465;57.664;39.686;2023-02-28T11:07:57;99176.88;;;0.07;58.07
63343;BME280;49465;57.664;39.686;2023-02-28T11:10:28;99164.31;;;-0.03;58.14
63343;BME280;49465;57.664;39.686;2023-02-28T11:12:57;99165.16;;;-0.02;58.55
63343;BME280;49465;57.664;39.686;2023-02-28T11:15:31;99165.69;;;0.28;57.59
63343;BME280;49465;57.664;39.686;2023-02-28T11:20:34;99154.72;;;0.23;57.94
63343;BME280;49465;57.664;39.686;2023-02-28T11:23:04;99155.59;;;0.24;58.02
63343;BME280;49465;57.664;39.686;2023-02-28T11:25:38;99135.84;;;0.43;57.76
63343;BME280;49465;57.664;39.686;2023-02-28T11:28:28;99140.53;;;0.55;57.42
63343;BME280;49465;57.664;39.686;2023-02-28T11:33:47;99137.81;;;0.58;57.53
63343;BME280;49465;57.664;39.686;2023-02-28T11:36:24;99146.88;;;0.47;57.91
63343;BME280;49465;57.664;39.686;2023-02-28T11:39:04;99136.72;;;0.44;58.36
63343;BME280;49465;57.664;39.686;2023-02-28T11:47:01;99139.16;;;0.26;58.72
63343;BME280;49465;57.664;39.686;2023-02-28T11:50:04;99135.16;;;0.60;58.15
63343;BME280;49465;57.664;39.686;2023-02-28T11:58:32;99135.50;;;0.73;58.13
63343;BME280;49465;57.664;39.686;2023-02-28T12:04:17;99122.34;;;0.98;57.16
63343;BME280;49465;57.664;39.686;2023-02-28T12:07:17;99120.66;;;1.17;56.84
63343;BME280;49465;57.664;39.686;2023-02-28T12:12:47;99119.25;;;0.71;58.18
63343;BME280;49465;57.664;39.686;2023-02-28T12:26:49;99110.00;;;0.86;57.83
63343;BME280;49465;57.664;39.686;2023-02-28T12:29:32;99109.13;;;1.06;57.44
63343;BME280;49465;57.664;39.686;2023-02-28T12:32:18;99099.34;;;0.93;57.69
63343;BME280;49465;57.664;39.686;2023-02-28T12:40:47;99095.75;;;1.35;57.16
63343;BME280;49465;57.664;39.686;2023-02-28T12:43:20;99089.88;;;1.13;57.40
63343;BME280;49465;57.664;39.686;2023-02-28T12:46:02;99100.94;;;1.35;57.44
63343;BME280;49465;57.664;39.686;2023-02-28T12:51:04;99113.75;;;1.18;57.48
63343;BME280;49465;57.664;39.686;2023-02-28T12:56:50;99119.69;;;1.39;57.84
63343;BME280;49465;57.664;39.686;2023-02-28T12:59:36;99117.81;;;1.62;57.75
63343;BME280;49465;57.664;39.686;2023-02-28T13:10:21;99122.00;;;1.26;58.11
63343;BME280;49465;57.664;39.686;2023-02-28T13:12:54;99110.56;;;1.32;58.06
63343;BME280;49465;57.664;39.686;2023-02-28T13:15:22;99118.31;;;1.32;57.74
63343;BME280;49465;57.664;39.686;2023-02-28T13:17:56;99120.31;;;1.44;57.87
63343;BME280;49465;57.664;39.686;2023-02-28T13:20:27;99120.53;;;1.58;57.29
63343;BME280;49465;57.664;39.686;2023-02-28T13:22:56;99112.22;;;1.71;56.38
63343;BME280;49465;57.664;39.686;2023-02-28T13:27:59;99121.03;;;1.67;56.12
63343;BME280;49465;57.664;39.686;2023-02-28T13:33:34;99121.09;;;2.02;55.24
63343;BME280;49465;57.664;39.686;2023-02-28T13:36:25;99117.06;;;1.96;55.48
63343;BME280;49465;57.664;39.686;2023-02-28T13:38:55;99123.88;;;1.80;55.29
63343;BME280;49465;57.664;39.686;2023-02-28T13:44:17;99131.59;;;1.98;55.04
63343;BME280;49465;57.664;39.686;2023-02-28T13:49:31;99123.50;;;1.87;54.59
63343;BME280;49465;57.664;39.686;2023-02-28T13:52:09;99138.34;;;1.65;55.21
63343;BME280;49465;57.664;39.686;2023-02-28T13:54:57;99151.28;;;1.65;54.67
63343;BME280;49465;57.664;39.686;2023-02-28T14:09:28;99149.25;;;2.08;54.18
63343;BME280;49465;57.664;39.686;2023-02-28T14:15:04;99152.72;;;1.89;53.28
63343;BME280;49465;57.664;39.686;2023-02-28T14:17:36;99156.50;;;1.63;53.90
63343;BME280;49465;57.664;39.686;2023-02-28T14:20:04;99156.91;;;1.73;53.35
63343;BME280;49465;57.664;39.686;2023-02-28T14:25:47;99155.56;;;1.83;52.77
63343;BME280;49465;57.664;39.686;2023-02-28T14:31:28;99150.81;;;1.74;53.16
63343;BME280;49465;57.664;39.686;2023-02-28T14:34:14;99154.53;;;1.87;51.97
63343;BME280;49465;57.664;39.686;2023-02-28T14:36:44;99142.66;;;1.83;51.70
63343;BME280;49465;57.664;39.686;2023-02-28T14:39:40;99149.53;;;2.02;52.48
63343;BME280;49465;57.664;39.686;2023-02-28T14:42:36;99149.00;;;1.76;52.28
63343;BME280;49465;57.664;39.686;2023-02-28T14:45:30;99143.88;;;1.93;51.63
63343;BME280;49465;57.664;39.686;2023-02-28T14:47:58;99167.03;;;1.58;50.95
63343;BME280;49465;57.664;39.686;2023-02-28T14:50:33;99158.53;;;1.75;50.15
63343;BME280;49465;57.664;39.686;2023-02-28T14:53:01;99168.63;;;1.42;50.80
63343;BME280;49465;57.664;39.686;2023-02-28T14:55:31;99174.91;;;1.36;50.68
63343;BME280;49465;57.664;39.686;2023-02-28T14:58:00;99164.38;;;1.41;50.28
63343;BME280;49465;57.664;39.686;2023-02-28T15:00:49;99163.63;;;1.77;50.37
63343;BME280;49465;57.664;39.686;2023-02-28T15:03:37;99172.91;;;1.62;50.95
63343;BME280;49465;57.664;39.686;2023-02-28T15:06:17;99179.28;;;1.55;50.88
63343;BME280;49465;57.664;39.686;2023-02-28T15:08:44;99173.88;;;1.41;50.22
63343;BME280;49465;57.664;39.686;2023-02-28T15:11:17;99184.28;;;1.58;50.18
63343;BME280;49465;57.664;39.686;2023-02-28T15:13:52;99184.19;;;1.22;50.06
63343;BME280;49465;57.664;39.686;2023-02-28T15:16:34;99192.88;;;1.40;49.83
63343;BME280;49465;57.664;39.686;2023-02-28T15:19:23;99193.38;;;1.67;50.06
63343;BME280;49465;57.664;39.686;2023-02-28T15:22:04;99198.66;;;1.45;49.57
63343;BME280;49465;57.664;39.686;2023-02-28T15:24:55;99191.59;;;1.48;49.13
63343;BME280;49465;57.664;39.686;2023-02-28T15:27:25;99201.84;;;1.31;49.61
63343;BME280;49465;57.664;39.686;2023-02-28T15:29:56;99194.59;;;1.39;49.11
63343;BME280;49465;57.664;39.686;2023-02-28T15:32:35;99189.22;;;1.63;49.02
63343;BME280;49465;57.664;39.686;2023-02-28T15:40:46;99199.09;;;1.54;48.83
63343;BME280;49465;57.664;39.686;2023-02-28T15:43:36;99210.34;;;1.53;48.96
63343;BME280;49465;57.664;39.686;2023-02-28T15:46:11;99218.50;;;1.44;48.52
63343;BME280;49465;57.664;39.686;2023-02-28T15:48:53;99209.06;;;1.43;48.42
63343;BME280;49465;57.664;39.686;2023-02-28T15:51:35;99204.84;;;1.61;48.68
63343;BME280;49465;57.664;39.686;2023-02-28T15:54:14;99207.00;;;1.31;49.26
63343;BME280;49465;57.664;39.686;2023-02-28T15:56:51;99207.44;;;1.22;47.90
63343;BME280;49465;57.664;39.686;2023-02-28T15:59:29;99215.75;;;1.28;49.29
63343;BME280;49465;57.664;39.686;2023-02-28T16:07:29;99217.25;;;0.93;48.44
63343;BME280;49465;57.664;39.686;2023-02-28T16:09:56;99213.28;;;0.84;48.69